LANCER9 EDDF-USHN
Flight info
| Callsign | LANCER9 |
|---|---|
| Flight time | 2h 48m |
| Altitude | 25000 |
| Route | SULUS7S/18 SULUS Z12 LASGA/N0490F310 T202 ALOSO/N0485F330 T202 GOLAT/N0490F310 T202 SULED/N0485F330 T202 TOGRO/N0490F310 T202 MILGU/N0485F330 DCT OLBIK/N0490F310 L735 LUROS/N0475F270 Y621 SUBIX/N0476F410 N858 DENKO M994 GOMED/K0891F410 L738 NERIG/N0483F410 DCT ROLAV L72 LATLA/K0906F410 P727 OKBOS T758 TITEN P989 DIKEP L870 TUNAL T631 ABELO |
| Aircraft | C700/M-SABDE2FGHIJ2J3J4J5M1RWY/LB2 |
Departure
| Time | 2026-04-18 09:58 |
|---|---|
| Airport | Frankfurt Main Airport (EDDF) |
Arrival
| Time | 2026-04-18 12:46 |
|---|---|
| Airport | Nyagan Airport (USHN) |
| Time | Latitude | Longitude | Altitude | Speed | Heading |
|---|---|---|---|---|---|
| 2026-04-18 09:30 | 50.02172 | 8.53163 | 363 ft | 0 kts | 70° |
| 2026-04-18 09:54 | 50.02172 | 8.53164 | 357 ft | 1 kts | 70° |
| 2026-04-18 09:55 | 50.02191 | 8.53176 | 361 ft | 6 kts | 328° |
| 2026-04-18 09:55 | 50.02190 | 8.53095 | 362 ft | 10 kts | 215° |
| 2026-04-18 09:55 | 50.02149 | 8.52998 | 357 ft | 12 kts | 268° |
| 2026-04-18 09:55 | 50.02153 | 8.52861 | 362 ft | 13 kts | 298° |
| 2026-04-18 09:56 | 50.02231 | 8.52832 | 363 ft | 9 kts | 2° |
| 2026-04-18 09:56 | 50.02301 | 8.52833 | 358 ft | 11 kts | 352° |
| 2026-04-18 09:56 | 50.02325 | 8.52772 | 362 ft | 5 kts | 256° |
| 2026-04-18 09:56 | 50.02315 | 8.52723 | 364 ft | 5 kts | 251° |
| 2026-04-18 09:57 | 50.02304 | 8.52675 | 362 ft | 4 kts | 251° |
| 2026-04-18 09:57 | 50.02289 | 8.52617 | 367 ft | 6 kts | 232° |
| 2026-04-18 09:57 | 50.02251 | 8.52606 | 361 ft | 8 kts | 179° |
| 2026-04-18 09:57 | 50.01989 | 8.52608 | 357 ft | 78 kts | 180° |
| 2026-04-18 09:58 | 50.01179 | 8.52619 | 380 ft | 151 kts | 179° |
| 2026-04-18 09:58 | 50.00024 | 8.52620 | 924 ft | 171 kts | 179° |
| 2026-04-18 09:58 | 49.98790 | 8.52634 | 1540 ft | 190 kts | 181° |
| 2026-04-18 09:58 | 49.97408 | 8.52934 | 1880 ft | 213 kts | 154° |
| 2026-04-18 09:59 | 49.96207 | 8.54225 | 2755 ft | 211 kts | 134° |
| 2026-04-18 09:59 | 49.95401 | 8.56132 | 3584 ft | 215 kts | 119° |
| 2026-04-18 09:59 | 49.94653 | 8.58208 | 4606 ft | 230 kts | 121° |
| 2026-04-18 10:00 | 49.93942 | 8.63401 | 6644 ft | 272 kts | 95° |
| 2026-04-18 10:00 | 49.93711 | 8.66346 | 7808 ft | 276 kts | 107° |
| 2026-04-18 10:00 | 49.92980 | 8.69116 | 9136 ft | 280 kts | 121° |
| 2026-04-18 10:00 | 49.91803 | 8.71504 | 10388 ft | 285 kts | 136° |
| 2026-04-18 10:01 | 49.90188 | 8.73509 | 11207 ft | 311 kts | 147° |
| 2026-04-18 10:01 | 49.88545 | 8.75809 | 12315 ft | 325 kts | 132° |
| 2026-04-18 10:01 | 49.87257 | 8.78752 | 13542 ft | 337 kts | 120° |
| 2026-04-18 10:01 | 49.86100 | 8.81981 | 14642 ft | 347 kts | 120° |
| 2026-04-18 10:02 | 49.84905 | 8.85269 | 15760 ft | 354 kts | 120° |
| 2026-04-18 10:02 | 49.83682 | 8.88629 | 16891 ft | 361 kts | 120° |
| 2026-04-18 10:02 | 49.82440 | 8.92057 | 18000 ft | 368 kts | 120° |
| 2026-04-18 10:02 | 49.81173 | 8.95551 | 18975 ft | 375 kts | 120° |
| 2026-04-18 10:03 | 49.79886 | 8.99087 | 19916 ft | 378 kts | 121° |
| 2026-04-18 10:03 | 49.78584 | 9.02653 | 20781 ft | 383 kts | 121° |
| 2026-04-18 10:03 | 49.77266 | 9.06263 | 21655 ft | 387 kts | 121° |
| 2026-04-18 10:03 | 49.76120 | 9.10050 | 22473 ft | 393 kts | 109° |
| 2026-04-18 10:04 | 49.75408 | 9.14150 | 23323 ft | 397 kts | 104° |
| 2026-04-18 10:04 | 49.74753 | 9.18316 | 24058 ft | 401 kts | 104° |
| 2026-04-18 10:04 | 49.74077 | 9.22530 | 24735 ft | 406 kts | 104° |
| 2026-04-18 10:04 | 49.73381 | 9.26781 | 25385 ft | 411 kts | 105° |
| 2026-04-18 10:05 | 49.72679 | 9.31085 | 26037 ft | 415 kts | 104° |
| 2026-04-18 10:05 | 49.71973 | 9.35439 | 26662 ft | 420 kts | 104° |
| 2026-04-18 10:05 | 49.71258 | 9.39836 | 27306 ft | 424 kts | 105° |
| 2026-04-18 10:05 | 49.70539 | 9.44221 | 27920 ft | 429 kts | 105° |
| 2026-04-18 10:06 | 49.69805 | 9.48689 | 28276 ft | 427 kts | 105° |
| 2026-04-18 10:06 | 49.69063 | 9.53192 | 28681 ft | 435 kts | 105° |
| 2026-04-18 10:06 | 49.68327 | 9.57665 | 29366 ft | 438 kts | 105° |
| 2026-04-18 10:06 | 49.67637 | 9.62266 | 29923 ft | 443 kts | 99° |
| 2026-04-18 10:07 | 49.67431 | 9.67035 | 30493 ft | 447 kts | 89° |
| 2026-04-18 10:07 | 49.67765 | 9.71819 | 31026 ft | 450 kts | 78° |
| 2026-04-18 10:07 | 49.68545 | 9.76501 | 31533 ft | 452 kts | 73° |
| 2026-04-18 10:07 | 49.69384 | 9.81200 | 32028 ft | 455 kts | 73° |
| 2026-04-18 10:08 | 49.70220 | 9.85936 | 32513 ft | 459 kts | 73° |
| 2026-04-18 10:08 | 49.71068 | 9.90703 | 32965 ft | 461 kts | 72° |
| 2026-04-18 10:08 | 49.72288 | 9.95282 | 33444 ft | 461 kts | 61° |
| 2026-04-18 10:08 | 49.73962 | 9.99471 | 34131 ft | 456 kts | 52° |
| 2026-04-18 10:09 | 49.75807 | 10.03438 | 34655 ft | 454 kts | 52° |
| 2026-04-18 10:09 | 49.77668 | 10.07460 | 35154 ft | 454 kts | 52° |
| 2026-04-18 10:09 | 49.81326 | 10.15400 | 36066 ft | 452 kts | 52° |
| 2026-04-18 10:09 | 49.84975 | 10.23326 | 36883 ft | 451 kts | 52° |
| 2026-04-18 10:10 | 49.88604 | 10.31242 | 37636 ft | 450 kts | 52° |
| 2026-04-18 10:10 | 49.92226 | 10.39164 | 38325 ft | 449 kts | 52° |
| 2026-04-18 10:10 | 49.95832 | 10.47075 | 38928 ft | 449 kts | 53° |
| 2026-04-18 10:10 | 49.99437 | 10.55006 | 39361 ft | 449 kts | 52° |
| 2026-04-18 10:11 | 50.03026 | 10.62927 | 39807 ft | 448 kts | 53° |
| 2026-04-18 10:11 | 50.06612 | 10.70863 | 40221 ft | 448 kts | 53° |
| 2026-04-18 10:11 | 50.10605 | 10.78281 | 40614 ft | 446 kts | 45° |
| 2026-04-18 10:11 | 50.14771 | 10.85441 | 41001 ft | 446 kts | 46° |
| 2026-04-18 10:12 | 50.18890 | 10.92693 | 41372 ft | 446 kts | 46° |
| 2026-04-18 10:12 | 50.25132 | 11.03586 | 41914 ft | 446 kts | 46° |
| 2026-04-18 10:12 | 50.33387 | 11.18090 | 42643 ft | 445 kts | 46° |
| 2026-04-18 10:12 | 50.42072 | 11.31882 | 43165 ft | 447 kts | 41° |
| 2026-04-18 10:13 | 50.44849 | 11.36191 | 43170 ft | 451 kts | 43° |
| 2026-04-18 10:13 | 50.49323 | 11.43113 | 43182 ft | 457 kts | 41° |
| 2026-04-18 10:14 | 50.53920 | 11.50129 | 43184 ft | 464 kts | 43° |
| 2026-04-18 10:14 | 50.58901 | 11.56597 | 43175 ft | 467 kts | 33° |
| 2026-04-18 10:15 | 50.64193 | 11.62648 | 43180 ft | 473 kts | 34° |
| 2026-04-18 10:15 | 50.69544 | 11.68779 | 43180 ft | 478 kts | 34° |
| 2026-04-18 10:16 | 50.74958 | 11.74997 | 43181 ft | 484 kts | 34° |
| 2026-04-18 10:16 | 50.80421 | 11.81300 | 43178 ft | 488 kts | 34° |
| 2026-04-18 10:17 | 50.84971 | 11.86556 | 43174 ft | 486 kts | 34° |
| 2026-04-18 10:17 | 50.90413 | 11.92866 | 43166 ft | 484 kts | 34° |
| 2026-04-18 10:18 | 50.95832 | 11.99165 | 43169 ft | 482 kts | 34° |
| 2026-04-18 10:18 | 51.01245 | 12.05475 | 43172 ft | 484 kts | 34° |
| 2026-04-18 10:19 | 51.06686 | 12.11839 | 43169 ft | 487 kts | 34° |
| 2026-04-18 10:19 | 51.12150 | 12.18249 | 43168 ft | 489 kts | 34° |
| 2026-04-18 10:20 | 51.17603 | 12.24665 | 43181 ft | 486 kts | 34° |
| 2026-04-18 10:20 | 51.22932 | 12.30965 | 43174 ft | 482 kts | 34° |
| 2026-04-18 10:21 | 51.28361 | 12.37396 | 43170 ft | 484 kts | 34° |
| 2026-04-18 10:21 | 51.33408 | 12.44482 | 43185 ft | 490 kts | 45° |
| 2026-04-18 10:22 | 51.38073 | 12.52459 | 43197 ft | 491 kts | 45° |
| 2026-04-18 10:22 | 51.42738 | 12.60420 | 43179 ft | 487 kts | 45° |
| 2026-04-18 10:23 | 51.47005 | 12.68770 | 43179 ft | 486 kts | 57° |
| 2026-04-18 10:23 | 51.50026 | 12.78536 | 43184 ft | 491 kts | 63° |
| 2026-04-18 10:24 | 51.52959 | 12.88488 | 43186 ft | 495 kts | 63° |
| 2026-04-18 10:24 | 51.55881 | 12.98472 | 43182 ft | 492 kts | 63° |
| 2026-04-18 10:25 | 51.58785 | 13.08413 | 43164 ft | 490 kts | 63° |
| 2026-04-18 10:25 | 51.61672 | 13.18307 | 43179 ft | 487 kts | 63° |
| 2026-04-18 10:26 | 51.64518 | 13.28121 | 43177 ft | 488 kts | 63° |
| 2026-04-18 10:26 | 51.67391 | 13.38057 | 43183 ft | 491 kts | 63° |
| 2026-04-18 10:27 | 51.70415 | 13.47947 | 43179 ft | 491 kts | 56° |
| 2026-04-18 10:27 | 51.74675 | 13.56467 | 43193 ft | 486 kts | 46° |
| 2026-04-18 10:28 | 51.79070 | 13.64750 | 43184 ft | 485 kts | 51° |
| 2026-04-18 10:28 | 51.83164 | 13.73390 | 43182 ft | 484 kts | 49° |
| 2026-04-18 10:29 | 51.87452 | 13.81802 | 43197 ft | 484 kts | 50° |
| 2026-04-18 10:29 | 51.91609 | 13.90399 | 43199 ft | 484 kts | 49° |
| 2026-04-18 10:30 | 51.95806 | 13.98848 | 43188 ft | 485 kts | 49° |
| 2026-04-18 10:30 | 51.97879 | 14.03103 | 43824 ft | 469 kts | 50° |
| 2026-04-18 10:30 | 51.99834 | 14.07143 | 45137 ft | 446 kts | 50° |
| 2026-04-18 10:31 | 52.03715 | 14.15045 | 45180 ft | 450 kts | 50° |
| 2026-04-18 10:31 | 52.07606 | 14.23064 | 45194 ft | 454 kts | 50° |
| 2026-04-18 10:32 | 52.11535 | 14.31158 | 45204 ft | 458 kts | 50° |
| 2026-04-18 10:32 | 52.15494 | 14.39348 | 45202 ft | 463 kts | 50° |
| 2026-04-18 10:33 | 52.19487 | 14.47635 | 45206 ft | 467 kts | 50° |
| 2026-04-18 10:33 | 52.23508 | 14.56006 | 45208 ft | 470 kts | 50° |
| 2026-04-18 10:34 | 52.27551 | 14.64451 | 45206 ft | 474 kts | 50° |
| 2026-04-18 10:34 | 52.31591 | 14.72916 | 45206 ft | 477 kts | 50° |
| 2026-04-18 10:35 | 52.35681 | 14.81518 | 45206 ft | 481 kts | 50° |
| 2026-04-18 10:35 | 52.39792 | 14.90190 | 45206 ft | 484 kts | 50° |
| 2026-04-18 10:36 | 52.47688 | 15.06933 | 45211 ft | 489 kts | 50° |
| 2026-04-18 10:36 | 52.55962 | 15.24599 | 45204 ft | 484 kts | 50° |
| 2026-04-18 10:37 | 52.64122 | 15.42140 | 45205 ft | 483 kts | 51° |
| 2026-04-18 10:37 | 52.72245 | 15.59714 | 45149 ft | 473 kts | 51° |
| 2026-04-18 10:38 | 52.80230 | 15.77120 | 45212 ft | 479 kts | 51° |
| 2026-04-18 10:38 | 52.88298 | 15.94829 | 45222 ft | 484 kts | 51° |
| 2026-04-18 10:39 | 52.96410 | 16.12762 | 45218 ft | 489 kts | 51° |
| 2026-04-18 10:39 | 53.04544 | 16.30868 | 45219 ft | 488 kts | 51° |
| 2026-04-18 10:40 | 53.12605 | 16.48941 | 45217 ft | 485 kts | 51° |
| 2026-04-18 10:40 | 53.20600 | 16.66993 | 45216 ft | 483 kts | 51° |
| 2026-04-18 10:41 | 53.28521 | 16.85007 | 45222 ft | 485 kts | 51° |
| 2026-04-18 10:41 | 53.36509 | 17.03303 | 45228 ft | 488 kts | 51° |
| 2026-04-18 10:42 | 53.44493 | 17.21725 | 45222 ft | 487 kts | 52° |
| 2026-04-18 10:42 | 53.52410 | 17.40126 | 45217 ft | 484 kts | 52° |
| 2026-04-18 10:43 | 53.60234 | 17.58443 | 45211 ft | 481 kts | 52° |
| 2026-04-18 10:43 | 53.68026 | 17.76819 | 45214 ft | 483 kts | 52° |
| 2026-04-18 10:44 | 53.75831 | 17.95360 | 45229 ft | 485 kts | 52° |
| 2026-04-18 10:44 | 53.83626 | 18.14018 | 45222 ft | 483 kts | 52° |
| 2026-04-18 10:45 | 53.91310 | 18.32545 | 45232 ft | 480 kts | 52° |
| 2026-04-18 10:45 | 53.98978 | 18.51171 | 45240 ft | 483 kts | 53° |
| 2026-04-18 10:46 | 54.06673 | 18.70004 | 45247 ft | 485 kts | 53° |
| 2026-04-18 10:46 | 54.14343 | 18.88917 | 45245 ft | 484 kts | 53° |
| 2026-04-18 10:47 | 54.21931 | 19.07769 | 45236 ft | 480 kts | 53° |
| 2026-04-18 10:47 | 54.29466 | 19.26633 | 45247 ft | 482 kts | 53° |
| 2026-04-18 10:48 | 54.37021 | 19.45690 | 45254 ft | 484 kts | 53° |
| 2026-04-18 10:48 | 54.44688 | 19.64730 | 45236 ft | 483 kts | 46° |
| 2026-04-18 10:49 | 54.54697 | 19.79742 | 45237 ft | 475 kts | 38° |
| 2026-04-18 10:49 | 54.64787 | 19.94416 | 45247 ft | 475 kts | 38° |
| 2026-04-18 10:50 | 54.74920 | 20.09258 | 45236 ft | 478 kts | 38° |
| 2026-04-18 10:50 | 54.85078 | 20.24236 | 45245 ft | 480 kts | 38° |
| 2026-04-18 10:51 | 54.95242 | 20.39315 | 45236 ft | 480 kts | 39° |
| 2026-04-18 10:51 | 55.05380 | 20.54456 | 45238 ft | 479 kts | 39° |
| 2026-04-18 10:52 | 55.15430 | 20.69568 | 45233 ft | 480 kts | 39° |
| 2026-04-18 10:52 | 55.25533 | 20.84865 | 45234 ft | 480 kts | 39° |
| 2026-04-18 10:52 | 55.30315 | 20.93054 | 45233 ft | 483 kts | 51° |
| 2026-04-18 10:53 | 55.33879 | 21.03077 | 45236 ft | 485 kts | 58° |
| 2026-04-18 10:53 | 55.40797 | 21.23453 | 45232 ft | 485 kts | 58° |
| 2026-04-18 10:54 | 55.47675 | 21.43915 | 45223 ft | 486 kts | 58° |
| 2026-04-18 10:54 | 55.54525 | 21.64475 | 45213 ft | 485 kts | 58° |
| 2026-04-18 10:55 | 55.61307 | 21.85008 | 45208 ft | 482 kts | 58° |
| 2026-04-18 10:55 | 55.68032 | 22.05540 | 45216 ft | 480 kts | 58° |
| 2026-04-18 10:56 | 55.74700 | 22.26070 | 45215 ft | 482 kts | 58° |
| 2026-04-18 10:56 | 55.81373 | 22.46797 | 45211 ft | 484 kts | 58° |
| 2026-04-18 10:57 | 55.88041 | 22.67688 | 45208 ft | 485 kts | 58° |
| 2026-04-18 10:57 | 55.94663 | 22.88616 | 45205 ft | 484 kts | 58° |
| 2026-04-18 10:58 | 56.01187 | 23.09415 | 45206 ft | 482 kts | 58° |
| 2026-04-18 10:58 | 56.07697 | 23.30353 | 45212 ft | 481 kts | 59° |
| 2026-04-18 10:59 | 56.14148 | 23.51289 | 45199 ft | 479 kts | 59° |
| 2026-04-18 10:59 | 56.20565 | 23.72295 | 45199 ft | 481 kts | 59° |
| 2026-04-18 11:00 | 56.26983 | 23.93496 | 45196 ft | 484 kts | 59° |
| 2026-04-18 11:00 | 56.34105 | 24.13977 | 45189 ft | 482 kts | 53° |
| 2026-04-18 11:01 | 56.41733 | 24.33830 | 45180 ft | 480 kts | 53° |
| 2026-04-18 11:01 | 56.49304 | 24.53665 | 45174 ft | 478 kts | 53° |
| 2026-04-18 11:02 | 56.60550 | 24.83429 | 45181 ft | 476 kts | 54° |
| 2026-04-18 11:02 | 56.67714 | 25.03777 | 45190 ft | 479 kts | 55° |
| 2026-04-18 11:03 | 56.74893 | 25.24321 | 45186 ft | 483 kts | 55° |
| 2026-04-18 11:03 | 56.82057 | 25.44988 | 45178 ft | 481 kts | 55° |
| 2026-04-18 11:04 | 56.87456 | 25.62685 | 45183 ft | 480 kts | 63° |
| 2026-04-18 11:04 | 56.93136 | 25.84847 | 45179 ft | 483 kts | 63° |
| 2026-04-18 11:05 | 56.98801 | 26.07206 | 45183 ft | 485 kts | 63° |
| 2026-04-18 11:05 | 57.04451 | 26.29731 | 45182 ft | 487 kts | 63° |
| 2026-04-18 11:06 | 57.10068 | 26.52356 | 45180 ft | 485 kts | 63° |
| 2026-04-18 11:06 | 57.15621 | 26.74949 | 45176 ft | 484 kts | 63° |
| 2026-04-18 11:07 | 57.21114 | 26.97530 | 45171 ft | 482 kts | 63° |
| 2026-04-18 11:07 | 57.26555 | 27.20128 | 45178 ft | 482 kts | 64° |
| 2026-04-18 11:08 | 57.31984 | 27.42914 | 45183 ft | 486 kts | 64° |
| 2026-04-18 11:08 | 57.37411 | 27.65942 | 45191 ft | 487 kts | 64° |
| 2026-04-18 11:09 | 57.44014 | 27.87676 | 45183 ft | 482 kts | 58° |
| 2026-04-18 11:09 | 57.50704 | 28.09215 | 45183 ft | 481 kts | 58° |
| 2026-04-18 11:10 | 57.57377 | 28.30911 | 45183 ft | 486 kts | 58° |
| 2026-04-18 11:10 | 57.63809 | 28.53145 | 45179 ft | 486 kts | 59° |
| 2026-04-18 11:11 | 57.70150 | 28.75410 | 45182 ft | 484 kts | 60° |
| 2026-04-18 11:11 | 57.76388 | 28.97529 | 45174 ft | 483 kts | 60° |
| 2026-04-18 11:12 | 57.82605 | 29.19794 | 45172 ft | 482 kts | 60° |
| 2026-04-18 11:12 | 57.88822 | 29.42283 | 45193 ft | 488 kts | 60° |
| 2026-04-18 11:13 | 57.95019 | 29.64922 | 45165 ft | 484 kts | 60° |
| 2026-04-18 11:13 | 58.01122 | 29.87439 | 45162 ft | 483 kts | 61° |
| 2026-04-18 11:14 | 58.07211 | 30.10132 | 45164 ft | 486 kts | 61° |
| 2026-04-18 11:14 | 58.13293 | 30.33029 | 45172 ft | 488 kts | 61° |
| 2026-04-18 11:15 | 58.19341 | 30.56030 | 45165 ft | 487 kts | 61° |
| 2026-04-18 11:15 | 58.25675 | 30.78638 | 45166 ft | 483 kts | 60° |
| 2026-04-18 11:16 | 58.31911 | 31.01016 | 45160 ft | 481 kts | 60° |
| 2026-04-18 11:16 | 58.38173 | 31.23717 | 45171 ft | 485 kts | 60° |
| 2026-04-18 11:17 | 58.44424 | 31.46598 | 45161 ft | 487 kts | 60° |
| 2026-04-18 11:17 | 58.50641 | 31.69590 | 45160 ft | 486 kts | 60° |
| 2026-04-18 11:18 | 58.56800 | 31.92594 | 45160 ft | 485 kts | 60° |
| 2026-04-18 11:18 | 58.62906 | 32.15639 | 45158 ft | 484 kts | 60° |
| 2026-04-18 11:19 | 58.68958 | 32.38713 | 45157 ft | 483 kts | 60° |
| 2026-04-18 11:19 | 58.74975 | 32.61893 | 45161 ft | 485 kts | 61° |
| 2026-04-18 11:20 | 58.80944 | 32.85127 | 45167 ft | 488 kts | 61° |
| 2026-04-18 11:20 | 58.86940 | 33.08712 | 45156 ft | 490 kts | 61° |
| 2026-04-18 11:21 | 58.92881 | 33.32345 | 45160 ft | 488 kts | 61° |
| 2026-04-18 11:21 | 58.95918 | 33.44521 | 45224 ft | 480 kts | 62° |
| 2026-04-18 11:22 | 58.98807 | 33.56164 | 45152 ft | 480 kts | 62° |
| 2026-04-18 11:22 | 59.01705 | 33.67906 | 45168 ft | 486 kts | 62° |
| 2026-04-18 11:23 | 59.04629 | 33.79823 | 45169 ft | 492 kts | 62° |
| 2026-04-18 11:23 | 59.07566 | 33.91859 | 45169 ft | 491 kts | 62° |
| 2026-04-18 11:24 | 59.10469 | 34.03817 | 45165 ft | 487 kts | 62° |
| 2026-04-18 11:24 | 59.13342 | 34.15715 | 45160 ft | 485 kts | 62° |
| 2026-04-18 11:25 | 59.16191 | 34.27581 | 45158 ft | 488 kts | 62° |
| 2026-04-18 11:25 | 59.19066 | 34.39626 | 45167 ft | 491 kts | 63° |
| 2026-04-18 11:26 | 59.21944 | 34.51746 | 45164 ft | 492 kts | 63° |
| 2026-04-18 11:26 | 59.24801 | 34.63844 | 45162 ft | 489 kts | 63° |
| 2026-04-18 11:27 | 59.27631 | 34.75899 | 45153 ft | 486 kts | 63° |
| 2026-04-18 11:27 | 59.30439 | 34.87922 | 45151 ft | 487 kts | 63° |
| 2026-04-18 11:28 | 59.33250 | 35.00028 | 45167 ft | 490 kts | 63° |
| 2026-04-18 11:28 | 59.36070 | 35.12242 | 45167 ft | 493 kts | 63° |
| 2026-04-18 11:29 | 59.38887 | 35.24516 | 45166 ft | 492 kts | 64° |
| 2026-04-18 11:29 | 59.41678 | 35.36747 | 45160 ft | 490 kts | 64° |
| 2026-04-18 11:30 | 59.44444 | 35.48934 | 45170 ft | 487 kts | 64° |
| 2026-04-18 11:30 | 59.47132 | 35.61194 | 45161 ft | 489 kts | 65° |
| 2026-04-18 11:31 | 59.49789 | 35.73553 | 45162 ft | 491 kts | 64° |
| 2026-04-18 11:31 | 59.52457 | 35.85871 | 45154 ft | 494 kts | 65° |
| 2026-04-18 11:32 | 59.55110 | 35.98339 | 45153 ft | 492 kts | 65° |
| 2026-04-18 11:32 | 59.57754 | 36.10749 | 45155 ft | 490 kts | 65° |
| 2026-04-18 11:33 | 59.60365 | 36.23131 | 45147 ft | 487 kts | 65° |
| 2026-04-18 11:33 | 59.62972 | 36.35535 | 45152 ft | 491 kts | 65° |
| 2026-04-18 11:34 | 59.65588 | 36.48083 | 45157 ft | 496 kts | 65° |
| 2026-04-18 11:34 | 59.68203 | 36.60689 | 45153 ft | 493 kts | 65° |
| 2026-04-18 11:35 | 59.70788 | 36.73239 | 45141 ft | 490 kts | 65° |
| 2026-04-18 11:35 | 59.73331 | 36.85664 | 45136 ft | 489 kts | 66° |
| 2026-04-18 11:36 | 59.76681 | 37.02149 | 45152 ft | 494 kts | 66° |
| 2026-04-18 11:36 | 59.81786 | 37.27527 | 45143 ft | 494 kts | 66° |
| 2026-04-18 11:37 | 59.86816 | 37.52853 | 45140 ft | 491 kts | 66° |
| 2026-04-18 11:37 | 59.91805 | 37.78302 | 45140 ft | 494 kts | 66° |
| 2026-04-18 11:38 | 59.96761 | 38.03901 | 45137 ft | 495 kts | 67° |
| 2026-04-18 11:38 | 60.01633 | 38.29401 | 45129 ft | 494 kts | 67° |
| 2026-04-18 11:39 | 60.06472 | 38.55063 | 45129 ft | 492 kts | 68° |
| 2026-04-18 11:39 | 60.11239 | 38.80675 | 45126 ft | 491 kts | 67° |
| 2026-04-18 11:40 | 60.15992 | 39.06553 | 45141 ft | 496 kts | 68° |
| 2026-04-18 11:40 | 60.20706 | 39.32588 | 45137 ft | 496 kts | 68° |
| 2026-04-18 11:41 | 60.25338 | 39.58729 | 45141 ft | 496 kts | 69° |
| 2026-04-18 11:41 | 60.29920 | 39.84932 | 45144 ft | 494 kts | 69° |
| 2026-04-18 11:42 | 60.34433 | 40.11126 | 45153 ft | 494 kts | 69° |
| 2026-04-18 11:42 | 60.38882 | 40.37284 | 45147 ft | 496 kts | 69° |
| 2026-04-18 11:43 | 60.43318 | 40.63748 | 45160 ft | 496 kts | 70° |
| 2026-04-18 11:43 | 60.47692 | 40.90263 | 45155 ft | 497 kts | 69° |
| 2026-04-18 11:44 | 60.51898 | 41.16979 | 45155 ft | 496 kts | 71° |
| 2026-04-18 11:44 | 60.56001 | 41.43656 | 45151 ft | 494 kts | 71° |
| 2026-04-18 11:45 | 60.60054 | 41.70439 | 45159 ft | 497 kts | 71° |
| 2026-04-18 11:45 | 60.64058 | 41.97353 | 45151 ft | 496 kts | 72° |
| 2026-04-18 11:46 | 60.68003 | 42.24313 | 45159 ft | 496 kts | 72° |
| 2026-04-18 11:46 | 60.71889 | 42.51296 | 45157 ft | 494 kts | 72° |
| 2026-04-18 11:47 | 60.75678 | 42.78047 | 45150 ft | 493 kts | 73° |
| 2026-04-18 11:47 | 60.79453 | 43.05147 | 45148 ft | 496 kts | 73° |
| 2026-04-18 11:48 | 60.83182 | 43.32397 | 45153 ft | 496 kts | 73° |
| 2026-04-18 11:48 | 60.86852 | 43.59661 | 45150 ft | 495 kts | 73° |
| 2026-04-18 11:49 | 60.90458 | 43.86959 | 45154 ft | 495 kts | 73° |
| 2026-04-18 11:49 | 60.93209 | 44.08066 | 45112 ft | 488 kts | 73° |
| 2026-04-18 11:50 | 60.94936 | 44.21584 | 45146 ft | 492 kts | 74° |
| 2026-04-18 11:50 | 60.96642 | 44.35278 | 45154 ft | 495 kts | 75° |
| 2026-04-18 11:51 | 60.98349 | 44.48969 | 45155 ft | 498 kts | 74° |
| 2026-04-18 11:51 | 61.00049 | 44.62819 | 45151 ft | 499 kts | 75° |
| 2026-04-18 11:52 | 61.01737 | 44.76678 | 45159 ft | 498 kts | 75° |
| 2026-04-18 11:52 | 61.03409 | 44.90500 | 45142 ft | 495 kts | 75° |
| 2026-04-18 11:53 | 61.05052 | 45.04273 | 45147 ft | 495 kts | 74° |
| 2026-04-18 11:53 | 61.06694 | 45.18111 | 45146 ft | 498 kts | 75° |
| 2026-04-18 11:54 | 61.08323 | 45.32015 | 45156 ft | 498 kts | 75° |
| 2026-04-18 11:54 | 61.09942 | 45.45937 | 45157 ft | 498 kts | 75° |
| 2026-04-18 11:55 | 61.11530 | 45.59774 | 45153 ft | 497 kts | 75° |
| 2026-04-18 11:55 | 61.13118 | 45.73686 | 45152 ft | 496 kts | 75° |
| 2026-04-18 11:56 | 61.14683 | 45.87597 | 45158 ft | 495 kts | 75° |
| 2026-04-18 11:56 | 61.15973 | 45.99138 | 45153 ft | 495 kts | 76° |
| 2026-04-18 11:57 | 61.17521 | 46.13123 | 45157 ft | 495 kts | 75° |
| 2026-04-18 11:57 | 61.19049 | 46.26924 | 45161 ft | 495 kts | 76° |
| 2026-04-18 11:58 | 61.20559 | 46.40827 | 45160 ft | 494 kts | 76° |
| 2026-04-18 11:58 | 61.22066 | 46.54728 | 45159 ft | 494 kts | 76° |
| 2026-04-18 11:59 | 61.23552 | 46.68672 | 45167 ft | 494 kts | 76° |
| 2026-04-18 11:59 | 61.25251 | 46.82480 | 45159 ft | 494 kts | 74° |
| 2026-04-18 12:00 | 61.26979 | 46.96331 | 45164 ft | 497 kts | 73° |
| 2026-04-18 12:00 | 61.28718 | 47.10292 | 45165 ft | 499 kts | 74° |
| 2026-04-18 12:01 | 61.31271 | 47.31122 | 45166 ft | 492 kts | 74° |
| 2026-04-18 12:02 | 61.32653 | 47.45128 | 45167 ft | 495 kts | 78° |
| 2026-04-18 12:02 | 61.33971 | 47.59221 | 45171 ft | 496 kts | 77° |
| 2026-04-18 12:03 | 61.35273 | 47.73243 | 45175 ft | 496 kts | 78° |
| 2026-04-18 12:03 | 61.36721 | 47.87278 | 45165 ft | 495 kts | 75° |
| 2026-04-18 12:04 | 61.38169 | 48.01303 | 45162 ft | 494 kts | 76° |
| 2026-04-18 12:04 | 61.39630 | 48.15305 | 45161 ft | 494 kts | 76° |
| 2026-04-18 12:05 | 61.41063 | 48.29319 | 45170 ft | 494 kts | 77° |
| 2026-04-18 12:05 | 61.42495 | 48.43412 | 45170 ft | 497 kts | 76° |
| 2026-04-18 12:06 | 61.43912 | 48.57569 | 45165 ft | 498 kts | 76° |
| 2026-04-18 12:06 | 61.45316 | 48.71736 | 45163 ft | 496 kts | 76° |
| 2026-04-18 12:07 | 61.46701 | 48.85846 | 45168 ft | 493 kts | 76° |
| 2026-04-18 12:07 | 61.48060 | 48.99896 | 45167 ft | 493 kts | 77° |
| 2026-04-18 12:08 | 61.49409 | 49.13988 | 45166 ft | 494 kts | 77° |
| 2026-04-18 12:08 | 61.50738 | 49.28027 | 45166 ft | 495 kts | 77° |
| 2026-04-18 12:09 | 61.52066 | 49.42182 | 45163 ft | 496 kts | 77° |
| 2026-04-18 12:09 | 61.53384 | 49.56211 | 45157 ft | 488 kts | 76° |
| 2026-04-18 12:10 | 61.54688 | 49.70262 | 45157 ft | 493 kts | 77° |
| 2026-04-18 12:10 | 61.55984 | 49.84447 | 45160 ft | 497 kts | 78° |
| 2026-04-18 12:11 | 61.57277 | 49.98731 | 45170 ft | 499 kts | 77° |
| 2026-04-18 12:11 | 61.58552 | 50.13043 | 45173 ft | 498 kts | 78° |
| 2026-04-18 12:12 | 61.59814 | 50.27320 | 45178 ft | 496 kts | 78° |
| 2026-04-18 12:12 | 61.65459 | 50.92144 | 45192 ft | 492 kts | 74° |
| 2026-04-18 12:13 | 61.80533 | 52.03594 | 45255 ft | 492 kts | 72° |
| 2026-04-18 12:13 | 61.84579 | 52.60799 | 45181 ft | 499 kts | 95° |
| 2026-04-18 12:13 | 61.82727 | 53.18898 | 45104 ft | 499 kts | 88° |
| 2026-04-18 12:14 | 61.79936 | 54.35233 | 45255 ft | 498 kts | 93° |
| 2026-04-18 12:14 | 61.76409 | 55.52171 | 45117 ft | 500 kts | 91° |
| 2026-04-18 12:15 | 61.74430 | 56.08556 | 45197 ft | 500 kts | 94° |
| 2026-04-18 12:15 | 61.71527 | 56.80552 | 45184 ft | 502 kts | 93° |
| 2026-04-18 12:16 | 61.65970 | 57.98113 | 45180 ft | 504 kts | 95° |
| 2026-04-18 12:16 | 61.60094 | 59.12509 | 45262 ft | 502 kts | 94° |
| 2026-04-18 12:17 | 61.59124 | 59.30733 | 45228 ft | 505 kts | 95° |
| 2026-04-18 12:17 | 61.58334 | 59.45395 | 45230 ft | 505 kts | 95° |
| 2026-04-18 12:18 | 61.57527 | 59.59944 | 45232 ft | 501 kts | 95° |
| 2026-04-18 12:18 | 61.56697 | 59.74567 | 45243 ft | 507 kts | 95° |
| 2026-04-18 12:19 | 61.55851 | 59.89312 | 45250 ft | 509 kts | 95° |
| 2026-04-18 12:19 | 61.56014 | 60.04040 | 45245 ft | 503 kts | 78° |
| 2026-04-18 12:20 | 61.57714 | 60.18183 | 45251 ft | 498 kts | 73° |
| 2026-04-18 12:20 | 61.59463 | 60.32172 | 45246 ft | 499 kts | 73° |
| 2026-04-18 12:21 | 61.61225 | 60.46323 | 45249 ft | 503 kts | 73° |
| 2026-04-18 12:21 | 61.62975 | 60.60553 | 45248 ft | 502 kts | 73° |
| 2026-04-18 12:22 | 61.64706 | 60.74741 | 45246 ft | 500 kts | 73° |
| 2026-04-18 12:22 | 61.66415 | 60.88893 | 45244 ft | 498 kts | 73° |
| 2026-04-18 12:23 | 61.68104 | 61.03020 | 45242 ft | 497 kts | 74° |
| 2026-04-18 12:23 | 61.69801 | 61.17172 | 45257 ft | 500 kts | 73° |
| 2026-04-18 12:24 | 61.72127 | 61.36850 | 45250 ft | 504 kts | 74° |
| 2026-04-18 12:24 | 61.75063 | 61.62042 | 45251 ft | 502 kts | 74° |
| 2026-04-18 12:25 | 61.76707 | 61.76357 | 45245 ft | 501 kts | 74° |
| 2026-04-18 12:25 | 61.78334 | 61.90660 | 45241 ft | 500 kts | 74° |
| 2026-04-18 12:26 | 61.79941 | 62.04941 | 45242 ft | 499 kts | 75° |
| 2026-04-18 12:26 | 61.81533 | 62.19231 | 45241 ft | 499 kts | 75° |
| 2026-04-18 12:27 | 61.83116 | 62.33586 | 45245 ft | 502 kts | 75° |
| 2026-04-18 12:27 | 61.84679 | 62.47923 | 45249 ft | 504 kts | 75° |
| 2026-04-18 12:28 | 61.86247 | 62.62445 | 45244 ft | 507 kts | 75° |
| 2026-04-18 12:28 | 61.87799 | 62.76986 | 45246 ft | 504 kts | 75° |
| 2026-04-18 12:29 | 61.88572 | 62.91719 | 45242 ft | 506 kts | 91° |
| 2026-04-18 12:29 | 61.87744 | 63.06526 | 45256 ft | 506 kts | 98° |
| 2026-04-18 12:30 | 61.86509 | 63.21263 | 45250 ft | 510 kts | 99° |
| 2026-04-18 12:30 | 61.85187 | 63.36062 | 45277 ft | 512 kts | 99° |
| 2026-04-18 12:31 | 61.83848 | 63.50835 | 45253 ft | 514 kts | 98° |
| 2026-04-18 12:31 | 61.83738 | 63.65762 | 45244 ft | 505 kts | 78° |
| 2026-04-18 12:32 | 61.85284 | 63.80190 | 45227 ft | 501 kts | 74° |
| 2026-04-18 12:32 | 61.86953 | 64.00312 | 45231 ft | 505 kts | 78° |
| 2026-04-18 12:32 | 61.87600 | 64.07608 | 44775 ft | 503 kts | 76° |
| 2026-04-18 12:33 | 61.88293 | 64.14803 | 44284 ft | 496 kts | 76° |
| 2026-04-18 12:33 | 61.88903 | 64.21955 | 43640 ft | 490 kts | 78° |
| 2026-04-18 12:33 | 61.89453 | 64.29030 | 43037 ft | 483 kts | 78° |
| 2026-04-18 12:33 | 61.90029 | 64.36006 | 42452 ft | 476 kts | 77° |
| 2026-04-18 12:34 | 61.90630 | 64.42884 | 41892 ft | 473 kts | 77° |
| 2026-04-18 12:34 | 61.91879 | 64.58103 | 40746 ft | 469 kts | 78° |
| 2026-04-18 12:34 | 61.94107 | 64.85559 | 38630 ft | 487 kts | 78° |
| 2026-04-18 12:34 | 61.95320 | 64.95340 | 37539 ft | 483 kts | 66° |
| 2026-04-18 12:35 | 61.96540 | 65.01931 | 36800 ft | 475 kts | 64° |
| 2026-04-18 12:35 | 61.97732 | 65.08431 | 36079 ft | 469 kts | 66° |
| 2026-04-18 12:35 | 61.98775 | 65.14859 | 35386 ft | 463 kts | 68° |
| 2026-04-18 12:35 | 61.99797 | 65.21307 | 34705 ft | 457 kts | 66° |
| 2026-04-18 12:36 | 62.00868 | 65.27628 | 33999 ft | 451 kts | 65° |
| 2026-04-18 12:36 | 62.01947 | 65.33852 | 33208 ft | 446 kts | 65° |
| 2026-04-18 12:36 | 62.02995 | 65.40008 | 32432 ft | 433 kts | 65° |
| 2026-04-18 12:36 | 62.05235 | 65.53566 | 30272 ft | 399 kts | 65° |
| 2026-04-18 12:37 | 62.06748 | 65.63054 | 28412 ft | 382 kts | 65° |
| 2026-04-18 12:37 | 62.07458 | 65.68458 | 27370 ft | 379 kts | 78° |
| 2026-04-18 12:37 | 62.07315 | 65.74029 | 26376 ft | 378 kts | 103° |
| 2026-04-18 12:37 | 62.06251 | 65.79078 | 25287 ft | 371 kts | 128° |
| 2026-04-18 12:38 | 62.04445 | 65.82846 | 24187 ft | 358 kts | 153° |
| 2026-04-18 12:38 | 62.02226 | 65.84890 | 22991 ft | 342 kts | 172° |
| 2026-04-18 12:38 | 61.99936 | 65.85986 | 21742 ft | 334 kts | 177° |
| 2026-04-18 12:38 | 61.97661 | 65.86804 | 20552 ft | 330 kts | 178° |
| 2026-04-18 12:39 | 61.95407 | 65.87518 | 19397 ft | 326 kts | 179° |
| 2026-04-18 12:39 | 61.93174 | 65.88168 | 18229 ft | 322 kts | 179° |
| 2026-04-18 12:39 | 61.90966 | 65.88782 | 16987 ft | 318 kts | 179° |
| 2026-04-18 12:39 | 61.88797 | 65.89150 | 15770 ft | 306 kts | 190° |
| 2026-04-18 12:40 | 61.83716 | 65.80094 | 11454 ft | 263 kts | 263° |
| 2026-04-18 12:40 | 61.84930 | 65.72393 | 9118 ft | 229 kts | 304° |
| 2026-04-18 12:40 | 61.86234 | 65.68080 | 7732 ft | 253 kts | 305° |
| 2026-04-18 12:40 | 61.87210 | 65.64857 | 6832 ft | 267 kts | 306° |
| 2026-04-18 12:41 | 61.88149 | 65.61696 | 6014 ft | 229 kts | 305° |
| 2026-04-18 12:41 | 61.89049 | 65.59451 | 5952 ft | 187 kts | 335° |
| 2026-04-18 12:41 | 61.90327 | 65.58903 | 5452 ft | 203 kts | 10° |
| 2026-04-18 12:41 | 61.92978 | 65.59798 | 3932 ft | 186 kts | 6° |
| 2026-04-18 12:42 | 61.94190 | 65.59930 | 3678 ft | 166 kts | 5° |
| 2026-04-18 12:42 | 61.95341 | 65.60017 | 3499 ft | 153 kts | 5° |
| 2026-04-18 12:42 | 61.96278 | 65.60100 | 3335 ft | 132 kts | 6° |
| 2026-04-18 12:42 | 61.97190 | 65.60182 | 3087 ft | 127 kts | 5° |
| 2026-04-18 12:43 | 61.98039 | 65.60250 | 2890 ft | 118 kts | 6° |
| 2026-04-18 12:43 | 61.99171 | 65.60349 | 2656 ft | 114 kts | 6° |
| 2026-04-18 12:43 | 62.02320 | 65.60621 | 2006 ft | 111 kts | 6° |
| 2026-04-18 12:43 | 62.03626 | 65.60736 | 1728 ft | 108 kts | 7° |
| 2026-04-18 12:44 | 62.04379 | 65.60799 | 1575 ft | 109 kts | 6° |
| 2026-04-18 12:44 | 62.05142 | 65.60864 | 1408 ft | 107 kts | 6° |
| 2026-04-18 12:44 | 62.05853 | 65.60934 | 1249 ft | 100 kts | 8° |
| 2026-04-18 12:44 | 62.06539 | 65.61000 | 1107 ft | 98 kts | 6° |
| 2026-04-18 12:45 | 62.07228 | 65.61055 | 946 ft | 100 kts | 5° |
| 2026-04-18 12:45 | 62.07932 | 65.61120 | 813 ft | 102 kts | 8° |
| 2026-04-18 12:45 | 62.08629 | 65.61208 | 663 ft | 99 kts | 4° |
| 2026-04-18 12:45 | 62.09101 | 65.61215 | 602 ft | 104 kts | 3° |
| 2026-04-18 12:46 | 62.09821 | 65.61258 | 443 ft | 97 kts | 7° |
| 2026-04-18 12:46 | 62.10466 | 65.61325 | 366 ft | 88 kts | 5° |
| 2026-04-18 12:46 | 62.10963 | 65.61376 | 355 ft | 52 kts | 0° |
| 2026-04-18 12:46 | 62.11265 | 65.61409 | 365 ft | 40 kts | 2° |
| 2026-04-18 12:47 | 62.11517 | 65.61452 | 366 ft | 33 kts | 6° |
| 2026-04-18 12:47 | 62.11738 | 65.61473 | 365 ft | 30 kts | 2° |
| 2026-04-18 12:47 | 62.11952 | 65.61488 | 360 ft | 31 kts | 1° |
| 2026-04-18 12:47 | 62.12121 | 65.61502 | 365 ft | 7 kts | 2° |
| 2026-04-18 12:48 | 62.12134 | 65.61467 | 368 ft | 6 kts | 217° |
| 2026-04-18 12:48 | 62.12036 | 65.61470 | 364 ft | 21 kts | 181° |
| 2026-04-18 12:48 | 62.11860 | 65.61461 | 361 ft | 29 kts | 183° |
| 2026-04-18 12:48 | 62.11637 | 65.61439 | 366 ft | 35 kts | 181° |
| 2026-04-18 12:49 | 62.11394 | 65.61419 | 366 ft | 35 kts | 182° |
| 2026-04-18 12:49 | 62.11147 | 65.61395 | 359 ft | 36 kts | 181° |
| 2026-04-18 12:49 | 62.10910 | 65.61374 | 355 ft | 27 kts | 185° |
| 2026-04-18 12:49 | 62.10714 | 65.61347 | 361 ft | 29 kts | 182° |
| 2026-04-18 12:50 | 62.10502 | 65.61328 | 357 ft | 32 kts | 182° |
| 2026-04-18 12:50 | 62.10298 | 65.61309 | 357 ft | 26 kts | 183° |
| 2026-04-18 12:50 | 62.10197 | 65.61255 | 353 ft | 8 kts | 266° |
| 2026-04-18 12:50 | 62.10197 | 65.61120 | 354 ft | 10 kts | 270° |
| 2026-04-18 12:51 | 62.10200 | 65.60959 | 354 ft | 0 kts | 274° |
| 2026-04-18 12:51 | 62.10198 | 65.60921 | 354 ft | 5 kts | 243° |
| 2026-04-18 12:51 | 62.10144 | 65.60886 | 356 ft | 5 kts | 228° |
| 2026-04-18 12:51 | 62.10143 | 65.60793 | 354 ft | 8 kts | 276° |
| 2026-04-18 12:52 | 62.10166 | 65.60764 | 357 ft | 3 kts | 5° |
| 2026-04-18 12:52 | 62.10187 | 65.60765 | 360 ft | 0 kts | 2° |